createdAt,value
2023-02-01T00:01:00.103Z,2.40
2023-02-01T00:03:27.886Z,2.50
2023-02-01T00:05:59.787Z,2.50
2023-02-01T00:08:27.321Z,2.50
2023-02-01T00:11:09.138Z,2.50
2023-02-01T00:13:39.103Z,2.50
2023-02-01T00:16:06.937Z,2.50
2023-02-01T00:18:34.387Z,2.40
2023-02-01T00:21:01.815Z,2.50
2023-02-01T00:23:28.732Z,2.50
2023-02-01T00:25:55.572Z,2.60
2023-02-01T00:28:22.812Z,2.60
2023-02-01T00:30:57.959Z,2.60
2023-02-01T00:33:25.457Z,2.60
2023-02-01T00:35:52.460Z,2.60
2023-02-01T00:38:19.600Z,2.60
2023-02-01T00:40:46.448Z,2.60
2023-02-01T00:43:13.702Z,2.60
2023-02-01T00:45:40.481Z,2.70
2023-02-01T00:48:07.843Z,2.60
2023-02-01T00:50:35.034Z,2.50
2023-02-01T00:53:01.835Z,2.60
2023-02-01T00:55:28.617Z,2.70
2023-02-01T00:57:55.840Z,2.70
2023-02-01T01:00:23.024Z,2.70
2023-02-01T01:02:50.010Z,2.70
2023-02-01T01:05:16.885Z,2.70
2023-02-01T01:07:44.050Z,2.80
2023-02-01T01:10:11.422Z,2.80
2023-02-01T01:12:38.207Z,2.80
2023-02-01T01:15:05.959Z,2.90
2023-02-01T01:17:32.996Z,3.00
2023-02-01T01:20:00.259Z,3.10
2023-02-01T01:22:27.032Z,3.10
2023-02-01T01:24:54.155Z,3.00
2023-02-01T01:27:24.573Z,3.00
2023-02-01T01:29:52.220Z,3.00
2023-02-01T01:32:18.980Z,3.20
2023-02-01T01:34:46.286Z,3.20
2023-02-01T01:37:13.097Z,3.20
2023-02-01T01:39:40.345Z,3.00
2023-02-01T01:42:09.812Z,2.70
2023-02-01T01:44:59.671Z,2.70
2023-02-01T01:47:31.936Z,2.50
2023-02-01T01:50:01.377Z,2.40
2023-02-01T01:52:28.605Z,2.40
2023-02-01T01:54:55.532Z,2.30
2023-02-01T01:57:32.899Z,2.30
2023-02-01T02:00:16.689Z,2.30
2023-02-01T02:02:47.800Z,2.40
2023-02-01T02:05:15.889Z,2.30
2023-02-01T02:07:47.772Z,2.40
2023-02-01T02:10:16.420Z,2.20
2023-02-01T02:12:48.583Z,2.40
2023-02-01T02:15:19.691Z,2.40
2023-02-01T02:18:02.516Z,2.60
2023-02-01T02:21:08.039Z,2.80
2023-02-01T02:23:40.594Z,2.80
2023-02-01T02:26:42.460Z,2.90
2023-02-01T02:29:43.228Z,2.90
2023-02-01T02:32:29.733Z,2.90
2023-02-01T02:35:30.579Z,2.90
2023-02-01T02:38:10.652Z,3.00
2023-02-01T02:40:57.831Z,3.00
2023-02-01T02:43:58.453Z,3.00
2023-02-01T02:47:15.641Z,3.00
2023-02-01T02:50:30.604Z,3.00
2023-02-01T02:54:01.540Z,3.10
2023-02-01T02:56:47.622Z,3.10
2023-02-01T02:59:36.632Z,3.20
2023-02-01T03:02:22.033Z,3.10
2023-02-01T03:04:57.498Z,3.10
2023-02-01T03:08:01.989Z,3.10
2023-02-01T03:10:57.618Z,3.20
2023-02-01T03:13:37.189Z,3.10
2023-02-01T03:16:27.494Z,3.10
2023-02-01T03:19:23.967Z,3.10
2023-02-01T03:22:13.827Z,3.00
2023-02-01T03:24:45.476Z,3.00
2023-02-01T03:27:19.320Z,3.00
2023-02-01T03:29:53.894Z,2.90
2023-02-01T03:32:21.200Z,2.90
2023-02-01T03:34:49.762Z,2.80
2023-02-01T03:37:27.638Z,2.80
2023-02-01T03:40:06.700Z,2.80
2023-02-01T03:42:48.377Z,2.90
2023-02-01T03:45:22.009Z,2.80
2023-02-01T03:47:51.880Z,2.80
2023-02-01T03:50:23.072Z,2.80
2023-02-01T03:52:55.485Z,2.80
2023-02-01T03:55:24.952Z,2.90
2023-02-01T03:58:02.747Z,2.80
2023-02-01T04:00:29.826Z,2.90
2023-02-01T04:02:57.220Z,3.00
2023-02-01T04:05:24.771Z,3.10
2023-02-01T04:07:51.707Z,3.00
2023-02-01T04:10:19.829Z,2.90
2023-02-01T04:12:47.080Z,3.00
2023-02-01T04:15:16.737Z,2.70
2023-02-01T04:17:43.921Z,2.80
2023-02-01T04:20:11.399Z,2.80
2023-02-01T04:22:39.665Z,2.90
2023-02-01T04:25:07.575Z,2.80
2023-02-01T04:27:35.196Z,2.70
2023-02-01T04:30:02.151Z,2.60
2023-02-01T04:32:28.972Z,2.80
2023-02-01T04:34:56.198Z,2.70
2023-02-01T04:37:23.041Z,2.60
2023-02-01T04:39:50.286Z,2.70
2023-02-01T04:42:28.208Z,2.70
2023-02-01T04:44:55.371Z,2.70
2023-02-01T04:47:22.607Z,2.90
2023-02-01T04:49:49.929Z,2.90
2023-02-01T04:52:17.187Z,3.10
2023-02-01T04:54:43.965Z,3.30
2023-02-01T04:57:11.184Z,3.40
2023-02-01T04:59:37.959Z,3.40
2023-02-01T05:02:04.748Z,3.50
2023-02-01T05:04:32.203Z,3.60
2023-02-01T05:06:59.079Z,3.70
2023-02-01T05:09:26.289Z,3.60
2023-02-01T05:12:11.657Z,3.70
2023-02-01T05:14:38.460Z,3.80
2023-02-01T05:17:05.254Z,3.80
2023-02-01T05:19:32.101Z,3.80
2023-02-01T05:21:59.519Z,3.80
2023-02-01T05:24:28.024Z,3.90
2023-02-01T05:26:54.864Z,4.00
2023-02-01T05:29:23.164Z,3.90
2023-02-01T05:31:50.311Z,4.00
2023-02-01T05:34:17.555Z,4.00
2023-02-01T05:36:44.913Z,4.00
2023-02-01T05:39:13.710Z,3.90
2023-02-01T05:41:40.865Z,3.80
2023-02-01T05:44:10.436Z,3.70
2023-02-01T05:46:38.802Z,3.70
2023-02-01T05:49:05.826Z,3.70
2023-02-01T05:51:32.732Z,3.70
2023-02-01T05:53:59.565Z,3.80
2023-02-01T05:56:27.494Z,3.80
2023-02-01T05:58:54.795Z,3.80
2023-02-01T06:01:21.702Z,3.90
2023-02-01T06:03:48.592Z,4.00
2023-02-01T06:06:21.168Z,3.90
2023-02-01T06:08:48.317Z,4.10
2023-02-01T06:11:26.749Z,4.20
2023-02-01T06:13:58.912Z,4.20
2023-02-01T06:16:26.361Z,4.20
2023-02-01T06:18:53.569Z,4.10
2023-02-01T06:21:27.005Z,4.10
2023-02-01T06:23:55.693Z,4.00
2023-02-01T06:26:24.164Z,4.10
2023-02-01T06:28:51.513Z,4.10
2023-02-01T06:31:18.445Z,4.20
2023-02-01T06:33:47.184Z,4.20
2023-02-01T06:36:14.474Z,4.20
2023-02-01T06:38:41.671Z,4.20
2023-02-01T06:41:10.449Z,4.30
2023-02-01T06:43:38.742Z,4.40
2023-02-01T06:46:08.036Z,4.50
2023-02-01T06:48:35.597Z,4.50
2023-02-01T06:51:03.705Z,4.60
2023-02-01T06:53:31.495Z,4.60
2023-02-01T06:56:04.305Z,4.60
2023-02-01T06:58:34.163Z,4.50
2023-02-01T07:01:09.836Z,4.60
2023-02-01T07:03:37.759Z,4.60
2023-02-01T07:06:05.979Z,4.60
2023-02-01T07:08:35.270Z,4.60
2023-02-01T07:11:11.636Z,4.60
2023-02-01T07:13:39.338Z,4.60
2023-02-01T07:16:09.987Z,4.60
2023-02-01T07:18:37.249Z,4.70
2023-02-01T07:21:04.655Z,4.70
2023-02-01T07:23:33.400Z,4.70
2023-02-01T07:26:03.522Z,4.70
2023-02-01T07:28:32.819Z,4.80
2023-02-01T07:31:13.364Z,4.80
2023-02-01T07:33:40.229Z,4.80
2023-02-01T07:36:13.535Z,4.80
2023-02-01T07:38:41.352Z,4.80
2023-02-01T07:41:09.205Z,4.80
2023-02-01T07:43:41.353Z,4.70
2023-02-01T07:46:09.324Z,4.90
2023-02-01T07:48:36.191Z,4.90
2023-02-01T07:51:03.437Z,5.00
2023-02-01T07:53:31.393Z,5.00
2023-02-01T07:55:59.663Z,5.10
2023-02-01T07:58:27.641Z,5.20
2023-02-01T08:01:14.239Z,5.30
2023-02-01T08:03:44.183Z,5.30
2023-02-01T08:06:11.006Z,5.30
2023-02-01T08:08:39.623Z,5.20
2023-02-01T08:11:07.980Z,5.30
2023-02-01T08:13:39.179Z,5.30
2023-02-01T08:16:09.233Z,5.40
2023-02-01T08:18:37.853Z,5.30
2023-02-01T08:21:13.262Z,5.30
2023-02-01T08:23:41.863Z,5.40
2023-02-01T08:26:11.796Z,5.40
2023-02-01T08:28:40.000Z,5.50
2023-02-01T08:31:08.714Z,5.50
2023-02-01T08:33:38.300Z,5.60
2023-02-01T08:36:06.399Z,5.80
2023-02-01T08:38:33.289Z,5.90
2023-02-01T08:41:05.883Z,6.00
2023-02-01T08:43:33.153Z,5.90
2023-02-01T08:46:01.216Z,5.80
2023-02-01T08:48:28.053Z,5.80
2023-02-01T08:50:55.036Z,5.90
2023-02-01T08:53:23.511Z,5.80
2023-02-01T08:55:50.345Z,5.90
2023-02-01T08:58:18.365Z,5.60
2023-02-01T09:00:49.848Z,5.60
2023-02-01T09:03:17.686Z,5.50
2023-02-01T09:05:50.196Z,5.50
2023-02-01T09:08:17.617Z,5.60
2023-02-01T09:10:44.841Z,5.30
2023-02-01T09:13:12.264Z,5.40
2023-02-01T09:15:41.990Z,5.20
2023-02-01T09:18:09.359Z,5.20
2023-02-01T09:20:40.725Z,5.40
2023-02-01T09:23:09.571Z,5.50
2023-02-01T09:25:40.763Z,5.60
2023-02-01T09:28:09.284Z,5.60
2023-02-01T09:30:40.209Z,5.70
2023-02-01T09:33:07.063Z,5.80
2023-02-01T09:35:33.897Z,6.00
2023-02-01T09:38:00.788Z,6.00
2023-02-01T09:40:30.970Z,6.10
2023-02-01T09:43:11.986Z,6.20
2023-02-01T09:45:42.254Z,6.30
2023-02-01T09:48:21.932Z,6.50
2023-02-01T09:50:56.213Z,6.40
2023-02-01T09:53:31.930Z,6.50
2023-02-01T09:56:07.528Z,6.50
2023-02-01T09:58:39.026Z,6.60
2023-02-01T10:01:14.296Z,6.80
2023-02-01T10:03:41.353Z,6.70
2023-02-01T10:06:46.263Z,6.70
2023-02-01T10:09:39.250Z,6.80
2023-02-01T10:12:35.624Z,6.80
2023-02-01T10:15:26.862Z,6.80
2023-02-01T10:18:19.985Z,6.90
2023-02-01T10:21:11.043Z,7.00
2023-02-01T10:24:16.123Z,6.90
2023-02-01T10:26:48.913Z,6.90
2023-02-01T10:29:22.670Z,7.00
2023-02-01T10:31:50.076Z,7.00
2023-02-01T10:34:26.050Z,7.00
2023-02-01T10:37:01.126Z,7.10
2023-02-01T10:39:28.853Z,7.30
2023-02-01T10:41:57.279Z,7.20
2023-02-01T10:44:29.249Z,7.20
2023-02-01T10:46:56.358Z,7.20
2023-02-01T10:49:42.037Z,7.30
2023-02-01T10:52:20.839Z,7.50
2023-02-01T10:54:47.903Z,7.70
2023-02-01T10:57:27.139Z,7.80
2023-02-01T10:59:54.317Z,8.10
2023-02-01T11:02:41.769Z,8.10
2023-02-01T11:05:13.164Z,7.50
2023-02-01T11:07:47.106Z,7.20
2023-02-01T11:10:41.668Z,7.10
2023-02-01T11:13:17.921Z,6.80
2023-02-01T11:15:56.267Z,6.80
2023-02-01T11:18:30.814Z,6.60
2023-02-01T11:20:58.574Z,6.40
2023-02-01T11:23:30.333Z,6.30
2023-02-01T11:25:59.918Z,6.10
2023-02-01T11:28:35.761Z,6.20
2023-02-01T11:31:11.073Z,6.20
2023-02-01T11:33:49.184Z,6.10
2023-02-01T11:36:32.827Z,6.10
2023-02-01T11:39:14.687Z,6.10
2023-02-01T11:42:01.993Z,6.10
2023-02-01T11:44:35.642Z,6.10
2023-02-01T11:47:31.754Z,6.10
2023-02-01T11:50:06.061Z,6.30
2023-02-01T11:52:45.124Z,6.40
2023-02-01T11:55:54.819Z,6.20
2023-02-01T11:58:50.544Z,5.90
2023-02-01T12:01:32.294Z,5.70
2023-02-01T12:04:25.921Z,5.50
2023-02-01T12:06:56.333Z,5.40
2023-02-01T12:09:43.778Z,5.30
2023-02-01T12:12:29.596Z,5.30
2023-02-01T12:15:28.786Z,5.30
2023-02-01T12:18:06.503Z,5.30
2023-02-01T12:20:42.349Z,5.30
2023-02-01T12:23:51.167Z,5.40
2023-02-01T12:26:45.508Z,5.50
2023-02-01T12:29:27.386Z,5.50
2023-02-01T12:32:20.821Z,5.60
2023-02-01T12:35:14.715Z,5.50
2023-02-01T12:38:06.429Z,5.40
2023-02-01T12:41:11.777Z,5.30
2023-02-01T12:43:56.771Z,5.20
2023-02-01T12:46:55.098Z,5.20
2023-02-01T12:50:13.560Z,5.10
2023-02-01T12:52:50.905Z,5.20
2023-02-01T12:55:27.599Z,5.30
2023-02-01T12:58:13.454Z,5.40
2023-02-01T13:00:45.778Z,5.60
2023-02-01T13:04:14.369Z,5.70
2023-02-01T13:07:17.750Z,5.80
2023-02-01T13:09:56.583Z,5.80
2023-02-01T13:12:50.219Z,6.00
2023-02-01T13:15:29.602Z,6.20
2023-02-01T13:18:01.851Z,6.30
2023-02-01T13:20:36.746Z,6.30
2023-02-01T13:23:31.173Z,6.30
2023-02-01T13:26:00.190Z,6.20
2023-02-01T13:28:33.943Z,6.00
2023-02-01T13:31:07.696Z,5.90
2023-02-01T13:34:02.107Z,6.00
2023-02-01T13:36:52.609Z,6.20
2023-02-01T13:39:51.382Z,6.60
2023-02-01T13:42:31.044Z,6.40
2023-02-01T13:45:02.644Z,6.20
2023-02-01T13:47:35.197Z,6.00
2023-02-01T13:50:21.712Z,6.00
2023-02-01T13:53:01.769Z,5.90
2023-02-01T13:55:36.555Z,5.80
2023-02-01T13:58:17.184Z,5.70
2023-02-01T14:00:54.871Z,5.70
2023-02-01T14:03:45.294Z,5.70
2023-02-01T14:06:44.705Z,6.00
2023-02-01T14:09:35.288Z,6.10
2023-02-01T14:12:42.527Z,6.10
2023-02-01T14:15:31.363Z,6.10
2023-02-01T14:17:59.814Z,5.90
2023-02-01T14:20:50.782Z,5.60
2023-02-01T14:23:23.587Z,5.30
2023-02-01T14:26:04.916Z,5.20
2023-02-01T14:28:32.468Z,5.10
2023-02-01T14:31:01.682Z,5.10
2023-02-01T14:33:29.689Z,5.10
2023-02-01T14:36:13.596Z,5.10
2023-02-01T14:38:50.419Z,5.00
2023-02-01T14:41:39.520Z,5.10
2023-02-01T14:44:25.442Z,5.20
2023-02-01T14:47:26.489Z,5.10
2023-02-01T14:50:21.839Z,5.00
2023-02-01T14:53:01.411Z,4.90
2023-02-01T14:55:42.441Z,4.90
2023-02-01T14:58:43.727Z,4.70
2023-02-01T15:01:33.282Z,4.80
2023-02-01T15:04:08.045Z,4.90
2023-02-01T15:06:36.333Z,4.90
2023-02-01T15:09:21.511Z,4.90
2023-02-01T15:15:12.486Z,4.70
2023-02-01T15:17:41.636Z,4.60
2023-02-01T15:20:22.629Z,4.70
2023-02-01T15:23:25.600Z,4.70
2023-02-01T15:25:53.869Z,4.60
2023-02-01T15:28:23.092Z,4.60
2023-02-01T15:31:01.919Z,4.70
2023-02-01T15:33:32.661Z,4.80
2023-02-01T15:36:20.038Z,4.90
2023-02-01T15:38:47.161Z,5.00
2023-02-01T15:41:30.648Z,5.10
2023-02-01T15:43:58.704Z,5.10
2023-02-01T15:46:51.695Z,5.20
2023-02-01T15:49:39.028Z,5.10
2023-02-01T15:52:23.196Z,4.90
2023-02-01T15:55:04.118Z,5.00
2023-02-01T15:57:41.152Z,4.80
2023-02-01T16:00:21.898Z,4.80
2023-02-01T16:03:07.055Z,4.90
2023-02-01T16:05:39.603Z,4.90
2023-02-01T16:08:27.198Z,4.80
2023-02-01T16:11:19.117Z,4.70
2023-02-01T16:13:48.925Z,4.50
2023-02-01T16:16:16.120Z,4.30
2023-02-01T16:18:47.598Z,4.30
2023-02-01T16:21:18.859Z,4.30
2023-02-01T16:23:52.634Z,4.40
2023-02-01T16:26:24.689Z,4.30
2023-02-01T16:28:55.031Z,4.30
2023-02-01T16:31:31.998Z,4.50
2023-02-01T16:34:00.351Z,4.40
2023-02-01T16:36:31.627Z,4.50
2023-02-01T16:38:59.236Z,4.50
2023-02-01T16:41:29.113Z,4.70
2023-02-01T16:43:56.544Z,4.80
2023-02-01T16:46:29.169Z,5.00
2023-02-01T16:49:00.168Z,4.80
2023-02-01T16:51:34.661Z,4.60
2023-02-01T16:54:02.469Z,4.50
2023-02-01T16:56:34.969Z,4.20
2023-02-01T16:59:02.213Z,4.30
2023-02-01T17:01:29.664Z,4.40
2023-02-01T17:03:57.028Z,4.40
2023-02-01T17:06:26.590Z,4.40
2023-02-01T17:08:56.110Z,4.50
2023-02-01T17:11:22.997Z,4.30
2023-02-01T17:13:50.416Z,4.40
2023-02-01T17:16:20.037Z,4.30
2023-02-01T17:19:08.547Z,4.40
2023-02-01T17:21:44.152Z,4.30
2023-02-01T17:24:16.131Z,4.20
2023-02-01T17:26:51.589Z,4.30
2023-02-01T17:29:19.432Z,4.10
2023-02-01T17:31:50.390Z,3.90
2023-02-01T17:34:19.572Z,3.70
2023-02-01T17:36:48.117Z,3.80
2023-02-01T17:39:36.909Z,3.80
2023-02-01T17:42:06.331Z,3.80
2023-02-01T17:44:33.224Z,3.80
2023-02-01T17:47:00.091Z,3.70
2023-02-01T17:49:30.539Z,3.70
2023-02-01T17:51:58.143Z,3.80
2023-02-01T17:54:27.574Z,4.10
2023-02-01T17:56:54.445Z,4.00
2023-02-01T17:59:21.707Z,4.10
2023-02-01T18:01:48.790Z,4.10
2023-02-01T18:04:20.475Z,4.10
2023-02-01T18:06:47.570Z,4.20
2023-02-01T18:09:15.091Z,4.30
2023-02-01T18:11:43.114Z,4.40
2023-02-01T18:14:13.512Z,4.50
2023-02-01T18:16:40.876Z,4.60
2023-02-01T18:19:11.479Z,4.60
2023-02-01T18:21:45.176Z,4.70
2023-02-01T18:24:18.985Z,4.70
2023-02-01T18:26:46.085Z,4.80
2023-02-01T18:29:14.419Z,4.90
2023-02-01T18:31:47.987Z,4.90
2023-02-01T18:34:21.432Z,5.00
2023-02-01T18:36:53.639Z,4.80
2023-02-01T18:39:21.054Z,4.70
2023-02-01T18:41:49.690Z,4.50
2023-02-01T18:44:18.843Z,4.50
2023-02-01T18:46:45.904Z,4.50
2023-02-01T18:49:14.562Z,4.60
2023-02-01T18:51:43.570Z,4.50
2023-02-01T18:54:12.664Z,4.50
2023-02-01T18:56:40.018Z,4.60
2023-02-01T18:59:06.869Z,4.50
2023-02-01T19:01:34.416Z,4.50
2023-02-01T19:04:06.457Z,4.60
2023-02-01T19:06:40.526Z,4.60
2023-02-01T19:09:10.154Z,4.60
2023-02-01T19:11:38.852Z,4.60
2023-02-01T19:14:10.485Z,4.60
2023-02-01T19:16:40.056Z,4.70
2023-02-01T19:19:07.287Z,4.60
2023-02-01T19:21:34.122Z,4.60
2023-02-01T19:24:01.027Z,4.70
2023-02-01T19:26:28.364Z,4.60
2023-02-01T19:28:57.617Z,4.80
2023-02-01T19:31:25.074Z,4.80
2023-02-01T19:33:52.483Z,4.80
2023-02-01T19:36:20.555Z,4.80
2023-02-01T19:38:47.708Z,4.90
2023-02-01T19:41:17.180Z,4.90
2023-02-01T19:43:46.197Z,4.90
2023-02-01T19:46:14.284Z,5.10
2023-02-01T19:48:42.424Z,5.00
2023-02-01T19:51:10.218Z,5.00
2023-02-01T19:53:39.706Z,5.00
2023-02-01T19:56:09.946Z,5.00
2023-02-01T19:58:39.286Z,4.90
2023-02-01T20:01:09.368Z,4.90
2023-02-01T20:03:38.673Z,4.70
2023-02-01T20:06:08.271Z,4.40
2023-02-01T20:08:39.977Z,4.30
2023-02-01T20:11:08.457Z,4.20
2023-02-01T20:13:45.257Z,4.10
2023-02-01T20:16:19.573Z,4.10
2023-02-01T20:18:49.582Z,4.00
2023-02-01T20:21:23.703Z,3.90
2023-02-01T20:23:51.084Z,3.70
2023-02-01T20:26:28.146Z,3.60
2023-02-01T20:29:01.847Z,3.40
2023-02-01T20:34:43.177Z,3.20
2023-02-01T20:37:16.900Z,3.10
2023-02-01T20:39:48.970Z,3.00
2023-02-01T20:42:21.226Z,3.00
2023-02-01T20:47:39.307Z,3.00
2023-02-01T20:50:08.838Z,2.90
2023-02-01T20:52:37.659Z,2.90
2023-02-01T20:55:06.015Z,2.90
2023-02-01T20:57:33.545Z,2.90
2023-02-01T21:00:07.220Z,2.80
2023-02-01T21:02:38.649Z,2.70
2023-02-01T21:05:07.571Z,2.70
2023-02-01T21:07:41.147Z,2.70
2023-02-01T21:10:17.419Z,2.70
2023-02-01T21:12:50.177Z,2.70
2023-02-01T21:15:25.035Z,2.90
2023-02-01T21:17:53.445Z,2.70
2023-02-01T21:20:22.564Z,2.70
2023-02-01T21:22:51.268Z,2.70
2023-02-01T21:25:20.010Z,2.80
2023-02-01T21:27:52.991Z,2.80
2023-02-01T21:30:32.902Z,2.70
2023-02-01T21:38:36.092Z,2.90
2023-02-01T21:44:09.614Z,2.80
2023-02-01T21:46:36.510Z,2.90
2023-02-01T21:49:06.377Z,2.90
2023-02-01T21:51:37.362Z,2.90
2023-02-01T21:54:11.404Z,2.90
2023-02-01T21:56:40.356Z,2.90
2023-02-01T21:59:08.433Z,3.00
2023-02-01T22:01:35.374Z,2.90
2023-02-01T22:04:03.321Z,3.10
2023-02-01T22:06:33.412Z,2.90
2023-02-01T22:09:00.902Z,3.00
2023-02-01T22:11:28.538Z,2.90
2023-02-01T22:13:56.417Z,3.00
2023-02-01T22:16:24.314Z,3.10
2023-02-01T22:18:54.166Z,3.10
2023-02-01T22:21:24.965Z,3.20
2023-02-01T22:23:56.486Z,3.20
2023-02-01T22:26:26.509Z,3.20
2023-02-01T22:28:55.619Z,3.30
2023-02-01T22:31:23.470Z,3.30
2023-02-01T22:33:52.119Z,3.40
2023-02-01T22:36:19.532Z,3.40
2023-02-01T22:38:52.150Z,3.40
2023-02-01T22:41:21.836Z,3.50
2023-02-01T22:43:49.400Z,3.40
2023-02-01T22:46:20.810Z,3.50
2023-02-01T22:48:48.628Z,3.50
2023-02-01T22:51:24.313Z,3.50
2023-02-01T22:53:57.395Z,3.50
2023-02-01T22:56:36.093Z,3.50
2023-02-01T22:59:08.574Z,3.50
2023-02-01T23:01:35.537Z,3.60
2023-02-01T23:04:05.665Z,3.50
2023-02-01T23:06:33.737Z,3.50
2023-02-01T23:09:03.679Z,3.50
2023-02-01T23:11:31.555Z,3.50
2023-02-01T23:13:58.847Z,3.60
2023-02-01T23:16:26.446Z,3.60
2023-02-01T23:18:56.659Z,3.60
2023-02-01T23:21:24.191Z,3.60
2023-02-01T23:24:06.452Z,3.60
2023-02-01T23:26:34.889Z,3.60
2023-02-01T23:29:03.556Z,3.60
2023-02-01T23:31:33.989Z,3.60
2023-02-01T23:34:04.005Z,3.70
2023-02-01T23:36:35.273Z,3.70
2023-02-01T23:39:06.379Z,3.70
2023-02-01T23:41:34.049Z,3.70
2023-02-01T23:44:01.238Z,3.70
2023-02-01T23:46:33.222Z,3.70
2023-02-01T23:49:02.206Z,3.70
2023-02-01T23:51:30.632Z,3.70
2023-02-01T23:53:57.829Z,3.60
2023-02-01T23:56:34.010Z,3.60
2023-02-01T23:59:06.225Z,3.70
